createdAt,value
2023-06-13T00:01:38.146Z,18.80
2023-06-13T00:04:08.186Z,16.63
2023-06-13T00:06:39.032Z,17.48
2023-06-13T00:09:07.799Z,17.60
2023-06-13T00:11:35.672Z,13.27
2023-06-13T00:14:04.984Z,15.50
2023-06-13T00:16:33.789Z,16.92
2023-06-13T00:19:03.138Z,17.08
2023-06-13T00:21:31.149Z,14.57
2023-06-13T00:23:59.851Z,14.65
2023-06-13T00:26:27.777Z,17.17
2023-06-13T00:28:56.925Z,15.57
2023-06-13T00:31:30.528Z,19.08
2023-06-13T00:34:00.296Z,12.70
2023-06-13T00:36:30.496Z,21.60
2023-06-13T00:38:59.508Z,17.05
2023-06-13T00:41:27.918Z,17.40
2023-06-13T00:43:56.228Z,18.63
2023-06-13T00:46:34.427Z,17.15
2023-06-13T00:49:30.175Z,21.55
2023-06-13T00:52:08.106Z,14.18
2023-06-13T00:54:39.366Z,12.27
2023-06-13T00:57:09.653Z,17.17
2023-06-13T00:59:38.023Z,14.00
2023-06-13T01:02:06.250Z,15.82
2023-06-13T01:04:37.055Z,14.02
2023-06-13T01:07:12.472Z,13.82
2023-06-13T01:09:48.726Z,19.98
2023-06-13T01:12:30.549Z,18.58
2023-06-13T01:15:09.942Z,12.45
2023-06-13T01:17:43.538Z,14.18
2023-06-13T01:20:18.514Z,15.05
2023-06-13T01:23:07.922Z,15.30
2023-06-13T01:25:58.565Z,11.75
2023-06-13T01:28:28.252Z,15.73
2023-06-13T01:30:59.673Z,13.25
2023-06-13T01:33:29.394Z,16.65
2023-06-13T01:36:02.337Z,17.05
2023-06-13T01:38:32.179Z,14.07
2023-06-13T01:41:01.676Z,16.85
2023-06-13T01:43:32.566Z,11.75
2023-06-13T01:46:30.050Z,14.05
2023-06-13T01:49:01.229Z,16.40
2023-06-13T01:51:40.239Z,21.15
2023-06-13T01:54:12.542Z,15.70
2023-06-13T01:56:43.724Z,10.27
2023-06-13T01:59:13.521Z,14.43
2023-06-13T02:01:44.313Z,18.98
2023-06-13T02:04:12.874Z,14.15
2023-06-13T02:06:41.119Z,14.70
2023-06-13T02:09:09.050Z,18.92
2023-06-13T02:11:37.383Z,11.77
2023-06-13T02:14:05.392Z,19.48
2023-06-13T02:16:34.338Z,12.13
2023-06-13T02:19:03.084Z,17.08
2023-06-13T02:21:51.211Z,15.10
2023-06-13T02:24:20.108Z,23.35
2023-06-13T02:26:49.645Z,15.60
2023-06-13T02:29:19.834Z,16.73
2023-06-13T02:31:48.481Z,18.15
2023-06-13T02:34:16.858Z,15.88
2023-06-13T02:36:45.224Z,15.30
2023-06-13T02:39:13.530Z,12.80
2023-06-13T02:41:46.934Z,14.65
2023-06-13T02:44:14.963Z,16.65
2023-06-13T02:46:43.482Z,13.90
2023-06-13T02:49:11.430Z,12.80
2023-06-13T02:51:39.830Z,18.25
2023-06-13T02:54:08.816Z,13.88
2023-06-13T02:56:37.990Z,14.90
2023-06-13T02:59:06.557Z,16.75
2023-06-13T03:01:35.368Z,15.70
2023-06-13T03:04:09.629Z,16.98
2023-06-13T03:06:42.566Z,20.10
2023-06-13T03:09:13.337Z,17.40
2023-06-13T03:11:41.695Z,14.82
2023-06-13T03:14:10.024Z,16.27
2023-06-13T03:16:38.589Z,12.15
2023-06-13T03:19:07.034Z,16.85
2023-06-13T03:21:37.179Z,18.02
2023-06-13T03:24:06.301Z,14.90
2023-06-13T03:26:39.456Z,15.32
2023-06-13T03:29:11.384Z,13.80
2023-06-13T03:31:40.162Z,12.60
2023-06-13T03:34:08.722Z,15.10
2023-06-13T03:36:40.325Z,12.80
2023-06-13T03:39:08.954Z,14.60
2023-06-13T03:41:37.664Z,11.98
2023-06-13T03:44:05.850Z,17.38
2023-06-13T03:46:34.530Z,23.17
2023-06-13T03:49:02.599Z,15.43
2023-06-13T03:51:31.487Z,15.43
2023-06-13T03:53:59.769Z,13.30
2023-06-13T03:56:28.364Z,16.80
2023-06-13T03:58:57.023Z,16.30
2023-06-13T04:01:25.902Z,19.45
2023-06-13T04:03:53.937Z,20.27
2023-06-13T04:06:23.440Z,12.50
2023-06-13T04:08:51.754Z,14.82
2023-06-13T04:11:20.226Z,14.18
2023-06-13T04:13:48.203Z,17.05
2023-06-13T04:16:16.502Z,21.08
2023-06-13T04:18:45.832Z,27.10
2023-06-13T04:21:14.286Z,21.02
2023-06-13T04:23:42.629Z,15.23
2023-06-13T04:26:13.351Z,20.27
2023-06-13T04:28:42.053Z,20.70
2023-06-13T04:31:12.018Z,17.13
2023-06-13T04:33:41.225Z,18.77
2023-06-13T04:36:10.192Z,16.92
2023-06-13T04:38:40.860Z,16.35
2023-06-13T04:41:14.684Z,23.73
2023-06-13T04:43:42.783Z,19.83
2023-06-13T04:46:12.552Z,17.80
2023-06-13T04:48:40.558Z,16.35
2023-06-13T04:51:12.719Z,19.45
2023-06-13T04:53:42.595Z,19.00
2023-06-13T04:56:11.122Z,24.88
2023-06-13T04:58:39.259Z,13.15
2023-06-13T05:01:09.364Z,18.65
2023-06-13T05:03:39.213Z,16.65
2023-06-13T05:06:07.721Z,24.42
2023-06-13T05:08:36.070Z,22.95
2023-06-13T05:11:04.337Z,15.82
2023-06-13T05:13:32.318Z,20.85
2023-06-13T05:16:00.707Z,15.82
2023-06-13T05:18:31.314Z,23.05
2023-06-13T05:21:00.773Z,21.38
2023-06-13T05:23:29.862Z,19.48
2023-06-13T05:25:58.200Z,18.77
2023-06-13T05:28:26.146Z,24.80
2023-06-13T05:30:54.592Z,19.17
2023-06-13T05:33:23.000Z,24.35
2023-06-13T05:35:57.138Z,16.02
2023-06-13T05:38:26.679Z,17.50
2023-06-13T05:40:55.128Z,16.08
2023-06-13T05:43:23.346Z,20.67
2023-06-13T05:45:51.993Z,19.52
2023-06-13T05:48:20.006Z,17.83
2023-06-13T05:50:48.600Z,17.50
2023-06-13T05:53:16.616Z,15.15
2023-06-13T05:55:45.797Z,16.45
2023-06-13T05:58:13.982Z,15.23
2023-06-13T06:00:42.450Z,14.75
2023-06-13T06:03:10.797Z,15.30
2023-06-13T06:05:39.414Z,13.70
2023-06-13T06:08:07.445Z,17.05
2023-06-13T06:10:36.971Z,16.90
2023-06-13T06:13:07.176Z,17.52
2023-06-13T06:15:55.707Z,12.20
2023-06-13T06:18:24.491Z,12.43
2023-06-13T06:20:53.085Z,16.65
2023-06-13T06:23:21.156Z,17.13
2023-06-13T06:25:49.434Z,17.73
2023-06-13T06:28:17.493Z,19.95
2023-06-13T06:30:45.918Z,16.65
2023-06-13T06:33:13.946Z,15.10
2023-06-13T06:35:42.414Z,19.52
2023-06-13T06:38:11.133Z,20.45
2023-06-13T06:40:39.579Z,24.67
2023-06-13T06:43:07.693Z,13.40
2023-06-13T06:45:38.069Z,15.85
2023-06-13T06:48:06.461Z,18.20
2023-06-13T06:50:34.803Z,20.15
2023-06-13T06:53:02.919Z,19.85
2023-06-13T06:55:32.055Z,17.30
2023-06-13T06:58:00.097Z,24.48
2023-06-13T07:00:31.238Z,14.00
2023-06-13T07:02:59.779Z,16.27
2023-06-13T07:05:30.088Z,21.00
2023-06-13T07:07:58.205Z,26.85
2023-06-13T07:10:27.818Z,17.52
2023-06-13T07:12:55.886Z,18.38
2023-06-13T07:15:24.628Z,23.67
2023-06-13T07:17:53.446Z,14.77
2023-06-13T07:20:22.115Z,12.93
2023-06-13T07:22:50.208Z,20.17
2023-06-13T07:25:18.560Z,23.00
2023-06-13T07:27:47.490Z,17.63
2023-06-13T07:30:16.254Z,17.63
2023-06-13T07:32:44.443Z,17.55
2023-06-13T07:35:18.386Z,13.85
2023-06-13T07:37:46.423Z,18.50
2023-06-13T07:40:15.264Z,16.88
2023-06-13T07:42:43.509Z,14.52
2023-06-13T07:45:12.005Z,13.60
2023-06-13T07:47:40.099Z,17.00
2023-06-13T07:50:09.304Z,17.50
2023-06-13T07:52:37.531Z,17.60
2023-06-13T07:55:06.317Z,17.00
2023-06-13T07:57:53.703Z,15.50
2023-06-13T08:00:24.891Z,21.67
2023-06-13T08:02:52.949Z,18.35
2023-06-13T08:05:21.776Z,22.08
2023-06-13T08:07:49.860Z,15.07
2023-06-13T08:10:18.434Z,12.93
2023-06-13T08:12:49.042Z,13.93
2023-06-13T08:15:17.474Z,13.43
2023-06-13T08:17:45.479Z,19.70
2023-06-13T08:20:13.942Z,15.85
2023-06-13T08:22:42.656Z,16.40
2023-06-13T08:25:11.409Z,17.73
2023-06-13T08:27:44.903Z,17.70
2023-06-13T08:30:15.684Z,13.80
2023-06-13T08:32:44.391Z,13.45
2023-06-13T08:35:15.358Z,15.23
2023-06-13T08:37:43.647Z,14.45
2023-06-13T08:40:13.634Z,15.00
2023-06-13T08:42:41.934Z,14.55
2023-06-13T08:45:10.822Z,13.32
2023-06-13T08:47:39.909Z,10.70
2023-06-13T08:50:08.968Z,12.60
2023-06-13T08:52:42.182Z,11.02
2023-06-13T08:55:53.828Z,15.35
2023-06-13T08:58:09.001Z,11.53
2023-06-13T09:00:38.123Z,12.27
2023-06-13T09:03:10.921Z,13.68
2023-06-13T09:05:40.357Z,11.70
2023-06-13T09:08:28.657Z,15.27
2023-06-13T09:10:59.757Z,13.18
2023-06-13T09:13:30.572Z,18.48
2023-06-13T09:15:59.426Z,15.07
2023-06-13T09:18:29.019Z,14.95
2023-06-13T09:20:58.644Z,15.82
2023-06-13T09:23:27.826Z,10.25
2023-06-13T09:25:58.296Z,9.75
2023-06-13T09:28:34.301Z,14.25
2023-06-13T09:31:02.694Z,13.05
2023-06-13T09:33:30.862Z,14.55
2023-06-13T09:38:49.601Z,17.05
2023-06-13T09:41:21.271Z,16.67
2023-06-13T09:43:53.979Z,11.27
2023-06-13T09:46:26.084Z,13.55
2023-06-13T09:48:54.389Z,14.68
2023-06-13T09:51:23.633Z,11.85
2023-06-13T09:53:51.871Z,11.95
2023-06-13T09:56:21.938Z,13.80
2023-06-13T09:58:52.892Z,12.27
2023-06-13T10:01:21.651Z,16.02
2023-06-13T10:03:50.015Z,11.60
2023-06-13T10:06:18.426Z,13.18
2023-06-13T10:08:49.974Z,18.30
2023-06-13T10:11:24.746Z,11.40
2023-06-13T10:14:03.502Z,17.77
2023-06-13T10:16:37.184Z,8.65
2023-06-13T10:19:07.295Z,11.32
2023-06-13T10:21:48.100Z,11.95
2023-06-13T10:24:22.195Z,12.68
2023-06-13T10:26:56.914Z,13.93
2023-06-13T10:29:49.613Z,12.07
2023-06-13T10:32:18.031Z,14.15
2023-06-13T10:35:10.044Z,11.18
2023-06-13T10:37:58.728Z,13.35
2023-06-13T10:40:38.683Z,12.50
2023-06-13T10:43:21.342Z,13.90
2023-06-13T10:45:51.332Z,14.25
2023-06-13T10:48:53.951Z,17.55
2023-06-13T10:51:24.230Z,11.02
2023-06-13T10:54:07.610Z,11.23
2023-06-13T10:56:40.760Z,18.40
2023-06-13T10:59:18.907Z,12.63
2023-06-13T11:01:47.226Z,16.77
2023-06-13T11:04:23.506Z,11.15
2023-06-13T11:06:55.907Z,11.75
2023-06-13T11:09:26.670Z,7.30
2023-06-13T11:11:57.537Z,13.02
2023-06-13T11:14:29.034Z,10.30
2023-06-13T11:16:57.036Z,13.90
2023-06-13T11:19:28.368Z,12.07
2023-06-13T11:22:06.791Z,12.50
2023-06-13T11:24:36.916Z,14.27
2023-06-13T11:27:06.127Z,12.10
2023-06-13T11:29:35.063Z,17.02
2023-06-13T11:32:06.099Z,14.48
2023-06-13T11:34:44.252Z,13.02
2023-06-13T11:37:26.650Z,17.77
2023-06-13T11:42:31.770Z,14.05
2023-06-13T11:45:02.707Z,18.60
2023-06-13T11:47:32.830Z,14.80
2023-06-13T11:50:01.417Z,15.45
2023-06-13T11:52:32.835Z,12.30
2023-06-13T11:55:01.200Z,12.52
2023-06-13T11:57:50.810Z,13.75
2023-06-13T12:00:23.291Z,16.65
2023-06-13T12:02:52.411Z,11.95
2023-06-13T12:05:21.610Z,11.55
2023-06-13T12:07:50.687Z,17.08
2023-06-13T12:10:19.779Z,13.00
2023-06-13T12:12:58.408Z,17.10
2023-06-13T12:15:27.996Z,10.35
2023-06-13T12:18:03.994Z,10.55
2023-06-13T12:20:47.201Z,12.00
2023-06-13T12:23:16.741Z,12.73
2023-06-13T12:25:46.805Z,14.80
2023-06-13T12:28:17.235Z,7.35
2023-06-13T12:30:51.264Z,13.95
2023-06-13T12:33:26.697Z,12.60
2023-06-13T12:35:59.026Z,15.10
2023-06-13T12:38:28.590Z,16.98
2023-06-13T12:40:59.835Z,15.60
2023-06-13T12:43:30.672Z,15.38
2023-06-13T12:46:00.989Z,10.48
2023-06-13T12:48:29.104Z,14.02
2023-06-13T12:51:01.774Z,16.63
2023-06-13T12:53:32.420Z,9.50
2023-06-13T12:56:03.679Z,13.38
2023-06-13T12:58:33.240Z,20.88
2023-06-13T13:01:07.673Z,13.82
2023-06-13T13:03:37.414Z,14.95
2023-06-13T13:06:05.762Z,12.48
2023-06-13T13:08:35.988Z,14.02
2023-06-13T13:11:04.901Z,15.35
2023-06-13T13:13:32.776Z,14.32
2023-06-13T13:16:01.265Z,15.18
2023-06-13T13:18:29.517Z,18.27
2023-06-13T13:20:57.773Z,12.43
2023-06-13T13:23:25.941Z,21.08
2023-06-13T13:25:54.229Z,13.88
2023-06-13T13:28:22.084Z,7.65
2023-06-13T13:31:00.868Z,11.23
2023-06-13T13:33:30.534Z,13.65
2023-06-13T13:35:59.014Z,9.88
2023-06-13T13:38:27.180Z,12.45
2023-06-13T13:40:55.536Z,18.48
2023-06-13T13:43:24.629Z,13.98
2023-06-13T13:45:52.763Z,10.00
2023-06-13T13:48:21.134Z,13.18
2023-06-13T13:50:50.321Z,11.70
2023-06-13T13:53:18.994Z,7.30
2023-06-13T13:55:47.567Z,7.05
2023-06-13T13:58:18.270Z,6.75
2023-06-13T14:04:00.450Z,7.70
2023-06-13T14:06:31.633Z,8.02
2023-06-13T14:09:02.730Z,6.82
2023-06-13T14:11:34.707Z,7.38
2023-06-13T14:14:02.831Z,5.05
2023-06-13T14:16:31.270Z,3.63
2023-06-13T14:19:00.187Z,5.47
2023-06-13T14:21:29.745Z,4.47
2023-06-13T14:24:00.100Z,4.43
2023-06-13T14:26:29.015Z,3.85
2023-06-13T14:28:57.143Z,6.82
2023-06-13T14:31:25.833Z,3.97
2023-06-13T14:33:54.038Z,7.75
2023-06-13T14:36:23.069Z,5.93
2023-06-13T14:38:52.440Z,5.38
2023-06-13T14:41:21.186Z,6.38
2023-06-13T14:43:49.625Z,5.15
2023-06-13T14:46:17.928Z,7.18
2023-06-13T14:48:46.102Z,6.20
2023-06-13T14:51:14.994Z,4.85
2023-06-13T14:53:43.104Z,6.85
2023-06-13T14:56:11.929Z,6.43
2023-06-13T14:58:39.864Z,7.00
2023-06-13T15:01:08.764Z,7.55
2023-06-13T15:03:40.603Z,5.97
2023-06-13T15:06:08.994Z,4.93
2023-06-13T15:08:38.425Z,4.47
2023-06-13T15:11:09.668Z,7.82
2023-06-13T15:13:38.363Z,7.07
2023-06-13T15:16:08.750Z,7.38
2023-06-13T15:18:38.057Z,5.65
2023-06-13T15:21:06.822Z,9.60
2023-06-13T15:23:35.260Z,11.70
2023-06-13T15:26:05.074Z,7.43
2023-06-13T15:28:33.117Z,6.28
2023-06-13T15:31:01.378Z,7.25
2023-06-13T15:33:33.217Z,5.47
2023-06-13T15:36:04.449Z,5.57
2023-06-13T15:38:32.654Z,9.73
2023-06-13T15:41:01.049Z,7.85
2023-06-13T15:43:29.008Z,9.50
2023-06-13T15:45:57.937Z,8.60
2023-06-13T15:48:25.912Z,9.23
2023-06-13T15:50:54.152Z,12.60
2023-06-13T15:53:22.255Z,8.15
2023-06-13T15:55:50.910Z,8.60
2023-06-13T15:58:18.999Z,7.90
2023-06-13T16:00:47.527Z,8.40
2023-06-13T16:03:15.789Z,7.10
2023-06-13T16:05:45.432Z,9.48
2023-06-13T16:08:13.750Z,8.52
2023-06-13T16:10:43.002Z,7.88
2023-06-13T16:13:10.902Z,4.97
2023-06-13T16:15:39.479Z,11.02
2023-06-13T16:18:07.655Z,8.60
2023-06-13T16:20:36.052Z,10.70
2023-06-13T16:23:04.123Z,8.75
2023-06-13T16:25:33.065Z,13.07
2023-06-13T16:28:01.885Z,7.65
2023-06-13T16:30:30.548Z,12.30
2023-06-13T16:32:59.364Z,6.28
2023-06-13T16:35:28.455Z,7.03
2023-06-13T16:37:59.102Z,7.82
2023-06-13T16:40:28.114Z,5.53
2023-06-13T16:42:58.202Z,6.15
2023-06-13T16:45:26.912Z,6.80
2023-06-13T16:47:54.989Z,12.40
2023-06-13T16:50:25.332Z,6.45
2023-06-13T16:52:55.430Z,7.13
2023-06-13T16:55:24.689Z,8.25
2023-06-13T16:57:55.080Z,7.10
2023-06-13T17:00:23.398Z,10.52
2023-06-13T17:02:52.595Z,8.32
2023-06-13T17:05:20.943Z,7.63
2023-06-13T17:07:49.367Z,9.52
2023-06-13T17:10:21.254Z,10.98
2023-06-13T17:12:49.908Z,7.07
2023-06-13T17:15:18.491Z,7.53
2023-06-13T17:17:47.327Z,4.80
2023-06-13T17:20:15.333Z,8.85
2023-06-13T17:22:45.009Z,8.18
2023-06-13T17:25:13.286Z,6.55
2023-06-13T17:27:42.335Z,7.65
2023-06-13T17:30:11.010Z,5.30
2023-06-13T17:32:39.722Z,10.90
2023-06-13T17:35:08.299Z,9.82
2023-06-13T17:37:37.023Z,8.18
2023-06-13T17:40:07.664Z,8.55
2023-06-13T17:42:36.424Z,8.68
2023-06-13T17:45:04.930Z,7.28
2023-06-13T17:47:33.751Z,8.80
2023-06-13T17:50:01.958Z,7.03
2023-06-13T17:52:33.077Z,10.25
2023-06-13T17:55:02.018Z,11.05
2023-06-13T17:57:34.910Z,11.50
2023-06-13T18:00:04.416Z,7.43
2023-06-13T18:02:42.916Z,7.32
2023-06-13T18:05:11.591Z,11.55
2023-06-13T18:07:41.538Z,9.63
2023-06-13T18:10:09.795Z,8.18
2023-06-13T18:12:38.596Z,11.00
2023-06-13T18:15:07.439Z,9.50
2023-06-13T18:17:36.476Z,8.90
2023-06-13T18:20:06.114Z,12.32
2023-06-13T18:22:36.172Z,8.88
2023-06-13T18:25:04.917Z,6.78
2023-06-13T18:27:33.886Z,8.20
2023-06-13T18:30:02.177Z,11.15
2023-06-13T18:32:35.076Z,22.45
2023-06-13T18:35:03.842Z,8.90
2023-06-13T18:37:32.826Z,10.38
2023-06-13T18:40:01.723Z,8.77
2023-06-13T18:42:33.220Z,7.05
2023-06-13T18:45:01.578Z,8.63
2023-06-13T18:47:31.252Z,11.57
2023-06-13T18:49:59.591Z,10.90
2023-06-13T18:52:28.945Z,10.90
2023-06-13T18:54:57.618Z,6.63
2023-06-13T18:57:26.776Z,7.22
2023-06-13T18:59:55.065Z,9.60
2023-06-13T19:02:24.154Z,8.52
2023-06-13T19:04:55.149Z,9.25
2023-06-13T19:07:24.357Z,10.05
2023-06-13T19:09:52.887Z,6.40
2023-06-13T19:12:23.455Z,10.70
2023-06-13T19:14:54.096Z,9.25
2023-06-13T19:17:23.550Z,8.23
2023-06-13T19:19:52.110Z,12.07
2023-06-13T19:22:21.093Z,6.90
2023-06-13T19:24:49.646Z,6.47
2023-06-13T19:27:18.829Z,10.55
2023-06-13T19:29:47.313Z,11.38
2023-06-13T19:32:16.310Z,7.95
2023-06-13T19:34:44.992Z,6.88
2023-06-13T19:37:14.311Z,8.52
2023-06-13T19:45:53.579Z,9.40
2023-06-13T19:49:53.981Z,8.70
2023-06-13T19:57:11.145Z,6.57
2023-06-13T20:04:30.454Z,8.18
2023-06-13T20:07:50.342Z,10.95
2023-06-13T20:11:56.081Z,5.90
2023-06-13T20:26:29.168Z,6.35
2023-06-13T20:33:55.793Z,7.78
2023-06-13T20:37:14.372Z,11.43
2023-06-13T21:05:44.399Z,10.20
2023-06-13T21:08:38.211Z,9.95
2023-06-13T21:11:57.392Z,14.93
2023-06-13T21:14:51.484Z,11.95
2023-06-13T21:18:09.317Z,12.98
2023-06-13T21:26:36.346Z,6.18
2023-06-13T21:29:30.389Z,9.30
2023-06-13T21:32:48.522Z,7.65
2023-06-13T21:36:01.461Z,11.43
2023-06-13T21:38:55.658Z,9.38
2023-06-13T21:42:13.377Z,7.28
2023-06-13T21:45:07.703Z,8.65
2023-06-13T21:48:26.766Z,14.70
2023-06-13T22:26:59.097Z,5.93
2023-06-13T22:30:17.895Z,9.95
2023-06-13T22:32:47.112Z,10.85
2023-06-13T22:35:15.034Z,9.52
2023-06-13T22:37:43.418Z,10.85
2023-06-13T22:40:11.782Z,10.50
2023-06-13T22:42:42.082Z,10.00
2023-06-13T22:45:10.620Z,5.82
2023-06-13T22:47:39.226Z,7.75
2023-06-13T22:50:08.301Z,7.22
2023-06-13T22:52:41.021Z,10.27
2023-06-13T22:55:09.421Z,8.00
2023-06-13T22:57:38.802Z,10.82
2023-06-13T23:00:12.424Z,10.10
2023-06-13T23:02:42.837Z,10.07
2023-06-13T23:05:11.231Z,11.00
2023-06-13T23:07:39.792Z,7.65
2023-06-13T23:10:08.143Z,12.00
2023-06-13T23:12:37.362Z,11.02
2023-06-13T23:15:06.135Z,9.80
2023-06-13T23:17:37.078Z,6.95
2023-06-13T23:20:06.730Z,9.25
2023-06-13T23:22:35.320Z,8.38
2023-06-13T23:25:04.215Z,10.20
2023-06-13T23:27:33.384Z,11.98
2023-06-13T23:30:06.267Z,6.35
2023-06-13T23:35:09.444Z,8.07
2023-06-13T23:37:43.829Z,8.48
2023-06-13T23:40:15.256Z,9.27
2023-06-13T23:42:54.699Z,8.02
2023-06-13T23:45:23.206Z,5.63
2023-06-13T23:48:14.387Z,7.88
2023-06-13T23:50:46.360Z,7.57
2023-06-13T23:53:27.443Z,10.40
2023-06-13T23:55:56.318Z,7.88
2023-06-13T23:58:39.649Z,9.68
